createdAt,value
2022-10-31T00:00:02.252Z,10.05
2022-10-31T00:02:37.823Z,10.60
2022-10-31T00:05:04.396Z,10.40
2022-10-31T00:07:32.183Z,10.90
2022-10-31T00:09:58.547Z,10.35
2022-10-31T00:12:24.845Z,10.73
2022-10-31T00:14:51.173Z,10.70
2022-10-31T00:17:17.498Z,10.63
2022-10-31T00:19:44.918Z,10.80
2022-10-31T00:22:11.748Z,11.45
2022-10-31T00:24:38.131Z,10.95
2022-10-31T00:27:04.452Z,12.13
2022-10-31T00:29:30.738Z,11.90
2022-10-31T00:31:57.063Z,12.13
2022-10-31T00:34:23.406Z,11.32
2022-10-31T00:36:49.713Z,11.88
2022-10-31T00:39:16.034Z,12.75
2022-10-31T00:41:42.737Z,13.10
2022-10-31T00:44:12.231Z,12.70
2022-10-31T00:46:38.576Z,12.82
2022-10-31T00:49:04.895Z,13.95
2022-10-31T00:51:31.212Z,14.13
2022-10-31T00:53:58.658Z,13.02
2022-10-31T00:56:24.930Z,13.00
2022-10-31T00:58:51.785Z,14.98
2022-10-31T01:01:19.842Z,14.80
2022-10-31T01:03:46.204Z,14.15
2022-10-31T01:06:13.585Z,13.73
2022-10-31T01:08:40.456Z,14.02
2022-10-31T01:11:06.825Z,14.57
2022-10-31T01:13:33.209Z,14.07
2022-10-31T01:16:01.431Z,15.35
2022-10-31T01:18:28.010Z,14.68
2022-10-31T01:21:10.585Z,14.38
2022-10-31T01:23:37.207Z,14.50
2022-10-31T01:26:09.033Z,14.40
2022-10-31T01:28:36.696Z,14.95
2022-10-31T01:31:04.282Z,14.70
2022-10-31T01:33:30.722Z,15.60
2022-10-31T01:35:58.344Z,15.05
2022-10-31T01:38:25.527Z,15.13
2022-10-31T01:40:52.182Z,14.55
2022-10-31T01:43:18.616Z,14.48
2022-10-31T01:45:47.965Z,14.73
2022-10-31T01:48:16.271Z,14.63
2022-10-31T01:50:44.492Z,16.73
2022-10-31T01:53:12.258Z,14.30
2022-10-31T01:55:44.391Z,15.07
2022-10-31T01:58:16.655Z,13.98
2022-10-31T02:00:47.469Z,14.77
2022-10-31T02:03:13.944Z,15.40
2022-10-31T02:05:40.367Z,14.90
2022-10-31T02:08:13.504Z,13.77
2022-10-31T02:10:40.934Z,14.52
2022-10-31T02:13:09.045Z,14.27
2022-10-31T02:15:44.444Z,14.02
2022-10-31T02:18:11.064Z,15.35
2022-10-31T02:20:46.593Z,15.60
2022-10-31T02:23:28.088Z,14.65
2022-10-31T02:25:57.915Z,15.87
2022-10-31T02:28:35.002Z,15.68
2022-10-31T02:31:12.844Z,15.27
2022-10-31T02:33:45.633Z,13.48
2022-10-31T02:36:16.534Z,15.45
2022-10-31T02:38:42.814Z,14.73
2022-10-31T02:41:32.569Z,14.38
2022-10-31T02:44:18.061Z,16.65
2022-10-31T02:46:49.238Z,14.80
2022-10-31T02:49:23.803Z,16.70
2022-10-31T02:51:50.452Z,15.70
2022-10-31T02:54:24.745Z,15.30
2022-10-31T02:56:59.913Z,15.45
2022-10-31T02:59:26.710Z,15.70
2022-10-31T03:02:02.419Z,16.45
2022-10-31T03:04:35.576Z,14.77
2022-10-31T03:07:09.142Z,15.95
2022-10-31T03:09:43.059Z,14.23
2022-10-31T03:12:18.951Z,14.27
2022-10-31T03:14:45.318Z,15.23
2022-10-31T03:17:16.636Z,14.25
2022-10-31T03:19:46.617Z,16.10
2022-10-31T03:22:21.806Z,14.52
2022-10-31T03:24:49.882Z,14.98
2022-10-31T03:27:18.748Z,15.13
2022-10-31T03:29:45.554Z,14.63
2022-10-31T03:32:14.216Z,14.05
2022-10-31T03:34:42.426Z,13.68
2022-10-31T03:37:11.319Z,14.30
2022-10-31T03:39:39.243Z,14.70
2022-10-31T03:42:06.872Z,13.95
2022-10-31T03:44:34.872Z,14.88
2022-10-31T03:47:03.672Z,15.52
2022-10-31T03:49:30.842Z,14.32
2022-10-31T03:52:00.207Z,13.57
2022-10-31T03:54:29.949Z,13.75
2022-10-31T03:56:58.934Z,14.93
2022-10-31T03:59:32.601Z,14.32
2022-10-31T04:02:02.078Z,15.43
2022-10-31T04:04:29.758Z,15.25
2022-10-31T04:06:57.505Z,14.82
2022-10-31T04:09:25.097Z,14.73
2022-10-31T04:11:54.251Z,14.13
2022-10-31T04:14:53.676Z,12.77
2022-10-31T04:17:22.141Z,12.32
2022-10-31T04:19:48.552Z,12.15
2022-10-31T04:22:15.019Z,13.10
2022-10-31T04:24:41.544Z,12.95
2022-10-31T04:27:10.713Z,13.68
2022-10-31T04:29:37.806Z,13.30
2022-10-31T04:32:04.203Z,13.48
2022-10-31T04:34:31.018Z,12.65
2022-10-31T04:36:57.357Z,12.60
2022-10-31T04:39:26.779Z,12.95
2022-10-31T04:42:12.122Z,12.02
2022-10-31T04:44:38.900Z,12.45
2022-10-31T04:47:05.227Z,12.02
2022-10-31T04:49:31.605Z,12.88
2022-10-31T04:51:57.938Z,13.10
2022-10-31T04:54:24.563Z,12.55
2022-10-31T04:57:09.550Z,12.00
2022-10-31T04:59:36.940Z,13.02
2022-10-31T05:02:04.064Z,13.05
2022-10-31T05:04:43.752Z,13.77
2022-10-31T05:07:10.095Z,14.23
2022-10-31T05:09:36.458Z,14.38
2022-10-31T05:12:02.832Z,14.88
2022-10-31T05:14:48.652Z,14.70
2022-10-31T05:17:41.470Z,15.73
2022-10-31T05:20:27.715Z,14.60
2022-10-31T05:23:20.057Z,14.45
2022-10-31T05:25:47.059Z,16.08
2022-10-31T05:28:14.018Z,15.70
2022-10-31T05:30:40.347Z,16.52
2022-10-31T05:33:10.874Z,16.33
2022-10-31T05:35:55.622Z,14.98
2022-10-31T05:38:33.897Z,16.95
2022-10-31T05:41:10.257Z,17.02
2022-10-31T05:43:36.800Z,17.02
2022-10-31T05:46:05.569Z,18.83
2022-10-31T05:48:50.322Z,21.50
2022-10-31T05:51:54.917Z,25.88
2022-10-31T05:54:27.714Z,23.85
2022-10-31T05:56:54.084Z,22.85
2022-10-31T05:59:20.394Z,25.55
2022-10-31T06:01:47.664Z,22.73
2022-10-31T06:04:28.417Z,24.77
2022-10-31T06:06:54.758Z,23.48
2022-10-31T06:09:22.783Z,31.48
2022-10-31T06:11:49.579Z,29.98
2022-10-31T06:14:24.776Z,40.13
2022-10-31T06:16:54.854Z,35.90
2022-10-31T06:19:39.805Z,31.55
2022-10-31T06:22:06.337Z,30.80
2022-10-31T06:24:34.675Z,31.40
2022-10-31T06:27:18.780Z,28.17
2022-10-31T06:29:46.755Z,50.78
2022-10-31T06:32:21.551Z,28.23
2022-10-31T06:34:49.395Z,30.33
2022-10-31T06:37:15.887Z,33.58
2022-10-31T06:39:45.658Z,32.78
2022-10-31T06:42:16.292Z,36.17
2022-10-31T06:44:43.437Z,31.08
2022-10-31T06:48:14.992Z,41.10
2022-10-31T06:50:43.627Z,29.15
2022-10-31T06:55:41.998Z,41.63
2022-10-31T06:58:10.426Z,38.85
2022-10-31T07:00:38.733Z,35.75
2022-10-31T07:03:08.269Z,30.73
2022-10-31T07:05:35.801Z,31.30
2022-10-31T07:08:03.829Z,33.13
2022-10-31T07:10:34.375Z,29.38
2022-10-31T07:13:04.977Z,32.15
2022-10-31T07:15:35.812Z,32.25
2022-10-31T07:18:06.392Z,31.17
2022-10-31T07:20:34.266Z,22.65
2022-10-31T07:23:01.773Z,34.83
2022-10-31T07:25:30.274Z,29.77
2022-10-31T07:28:07.008Z,29.88
2022-10-31T07:30:33.625Z,30.08
2022-10-31T07:33:00.119Z,29.67
2022-10-31T07:35:46.616Z,24.80
2022-10-31T07:38:15.278Z,22.13
2022-10-31T07:40:42.830Z,28.88
2022-10-31T07:43:14.037Z,25.98
2022-10-31T07:45:58.174Z,21.65
2022-10-31T07:48:43.073Z,27.83
2022-10-31T07:51:28.150Z,24.10
2022-10-31T07:54:14.763Z,21.40
2022-10-31T07:56:41.312Z,21.05
2022-10-31T07:59:08.084Z,21.65
2022-10-31T08:01:34.550Z,20.48
2022-10-31T08:04:23.515Z,20.55
2022-10-31T08:07:08.323Z,19.27
2022-10-31T08:09:37.342Z,23.08
2022-10-31T08:12:13.822Z,19.88
2022-10-31T08:14:40.842Z,20.10
2022-10-31T08:17:07.339Z,18.95
2022-10-31T08:19:43.088Z,18.08
2022-10-31T08:22:13.115Z,17.20
2022-10-31T08:27:06.080Z,18.83
2022-10-31T08:29:32.756Z,17.85
2022-10-31T08:31:59.464Z,17.17
2022-10-31T08:34:44.395Z,17.38
2022-10-31T08:37:39.974Z,17.38
2022-10-31T08:40:07.616Z,15.82
2022-10-31T08:42:34.889Z,19.67
2022-10-31T08:45:04.382Z,20.48
2022-10-31T08:47:32.533Z,21.73
2022-10-31T08:49:59.426Z,20.58
2022-10-31T08:52:51.051Z,20.52
2022-10-31T08:55:13.140Z,21.48
2022-10-31T08:57:58.485Z,25.55
2022-10-31T09:00:31.377Z,25.70
2022-10-31T09:03:17.196Z,26.17
2022-10-31T09:05:43.756Z,27.85
2022-10-31T09:08:16.224Z,28.20
2022-10-31T09:10:45.265Z,27.50
2022-10-31T09:13:15.154Z,27.77
2022-10-31T09:16:01.773Z,28.08
2022-10-31T09:18:28.867Z,26.98
2022-10-31T09:20:59.079Z,29.25
2022-10-31T09:23:27.312Z,29.77
2022-10-31T09:25:53.979Z,27.52
2022-10-31T09:28:42.413Z,26.75
2022-10-31T09:31:12.890Z,29.15
2022-10-31T09:33:53.629Z,27.33
2022-10-31T09:36:39.039Z,28.58
2022-10-31T09:39:12.907Z,28.48
2022-10-31T09:42:02.964Z,26.23
2022-10-31T09:44:50.368Z,27.38
2022-10-31T09:47:37.375Z,24.80
2022-10-31T09:50:29.834Z,26.85
2022-10-31T09:53:01.539Z,27.42
2022-10-31T09:55:39.861Z,24.83
2022-10-31T09:58:06.539Z,16.27
2022-10-31T10:00:36.945Z,21.88
2022-10-31T10:03:10.977Z,21.92
2022-10-31T10:05:44.747Z,22.13
2022-10-31T10:08:21.287Z,24.13
2022-10-31T10:11:27.850Z,20.20
2022-10-31T10:14:14.670Z,22.75
2022-10-31T10:16:57.224Z,22.17
2022-10-31T10:19:29.450Z,23.00
2022-10-31T10:22:07.079Z,22.85
2022-10-31T10:24:51.927Z,21.75
2022-10-31T10:27:23.323Z,22.77
2022-10-31T10:30:01.964Z,23.37
2022-10-31T10:32:29.284Z,22.80
2022-10-31T10:35:01.017Z,22.48
2022-10-31T10:38:00.184Z,20.03
2022-10-31T10:40:28.185Z,19.45
2022-10-31T10:49:52.599Z,19.25
2022-10-31T10:53:02.455Z,18.55
2022-10-31T10:55:40.200Z,17.83
2022-10-31T10:58:10.108Z,15.60
2022-10-31T11:00:41.548Z,14.40
2022-10-31T11:03:08.044Z,12.55
2022-10-31T11:05:40.573Z,12.43
2022-10-31T11:08:07.314Z,12.52
2022-10-31T11:10:34.305Z,13.13
2022-10-31T11:13:12.920Z,12.27
2022-10-31T11:15:57.433Z,13.57
2022-10-31T11:20:57.943Z,13.32
2022-10-31T11:23:25.077Z,13.13
2022-10-31T11:25:52.799Z,13.15
2022-10-31T11:28:19.112Z,13.65
2022-10-31T11:30:47.669Z,13.85
2022-10-31T11:33:19.825Z,13.90
2022-10-31T11:35:46.217Z,15.73
2022-10-31T11:38:16.728Z,16.02
2022-10-31T11:40:51.974Z,12.82
2022-10-31T11:43:19.003Z,15.65
2022-10-31T11:45:45.379Z,15.73
2022-10-31T11:48:20.106Z,15.48
2022-10-31T11:50:51.002Z,16.52
2022-10-31T11:53:20.138Z,16.02
2022-10-31T11:55:47.055Z,17.15
2022-10-31T11:58:23.893Z,18.52
2022-10-31T12:00:51.301Z,18.88
2022-10-31T12:03:26.760Z,17.88
2022-10-31T12:06:00.121Z,18.17
2022-10-31T12:08:30.378Z,17.55
2022-10-31T12:11:00.932Z,20.08
2022-10-31T12:13:40.098Z,19.35
2022-10-31T12:16:34.869Z,19.67
2022-10-31T12:19:01.156Z,18.98
2022-10-31T12:21:46.983Z,19.50
2022-10-31T12:24:36.853Z,20.92
2022-10-31T12:27:06.044Z,19.67
2022-10-31T12:29:37.703Z,17.77
2022-10-31T12:32:15.852Z,18.27
2022-10-31T12:34:49.400Z,19.13
2022-10-31T12:37:28.064Z,19.15
2022-10-31T12:40:15.100Z,18.67
2022-10-31T12:43:00.696Z,18.65
2022-10-31T12:45:33.465Z,19.90
2022-10-31T12:50:44.086Z,19.98
2022-10-31T12:53:10.406Z,19.33
2022-10-31T12:55:49.189Z,20.10
2022-10-31T12:58:23.527Z,19.05
2022-10-31T13:00:52.755Z,20.33
2022-10-31T13:03:24.059Z,19.27
2022-10-31T13:05:55.653Z,20.63
2022-10-31T13:08:30.460Z,20.10
2022-10-31T13:11:05.819Z,21.48
2022-10-31T13:13:36.696Z,21.65
2022-10-31T13:16:11.090Z,21.38
2022-10-31T13:18:58.719Z,21.13
2022-10-31T13:21:34.996Z,22.55
2022-10-31T13:24:04.447Z,23.38
2022-10-31T13:26:36.438Z,22.08
2022-10-31T13:29:28.369Z,23.48
2022-10-31T13:31:59.258Z,23.05
2022-10-31T13:34:31.348Z,23.23
2022-10-31T13:37:16.609Z,23.60
2022-10-31T13:39:50.117Z,24.15
2022-10-31T13:42:35.748Z,24.10
2022-10-31T13:45:15.777Z,25.55
2022-10-31T13:47:43.029Z,25.67
2022-10-31T13:50:26.150Z,26.92
2022-10-31T13:52:52.609Z,27.52
2022-10-31T13:55:37.832Z,25.25
2022-10-31T13:58:05.382Z,27.33
2022-10-31T14:00:35.852Z,26.15
2022-10-31T14:03:02.307Z,27.25
2022-10-31T14:05:31.576Z,26.05
2022-10-31T14:07:59.221Z,25.52
2022-10-31T14:10:30.152Z,26.15
2022-10-31T14:13:05.118Z,25.83
2022-10-31T14:15:31.745Z,26.05
2022-10-31T14:18:00.457Z,26.95
2022-10-31T14:20:33.911Z,26.23
2022-10-31T14:23:10.847Z,25.90
2022-10-31T14:25:37.723Z,24.98
2022-10-31T14:28:18.549Z,26.10
2022-10-31T14:30:52.664Z,27.60
2022-10-31T14:33:20.534Z,26.05
2022-10-31T14:35:54.422Z,27.15
2022-10-31T14:38:25.334Z,27.23
2022-10-31T14:40:59.700Z,28.30
2022-10-31T14:43:27.296Z,28.05
2022-10-31T14:46:01.936Z,28.17
2022-10-31T14:48:46.834Z,26.27
2022-10-31T14:51:15.928Z,26.05
2022-10-31T14:53:47.537Z,26.95
2022-10-31T14:56:17.234Z,26.90
2022-10-31T14:58:47.869Z,25.95
2022-10-31T15:01:23.049Z,25.30
2022-10-31T15:04:17.683Z,26.33
2022-10-31T15:06:50.208Z,26.83
2022-10-31T15:09:24.156Z,24.58
2022-10-31T15:11:50.437Z,26.40
2022-10-31T15:14:23.995Z,27.30
2022-10-31T15:16:50.517Z,27.10
2022-10-31T15:19:21.017Z,27.15
2022-10-31T15:21:47.376Z,27.48
2022-10-31T15:24:16.785Z,27.73
2022-10-31T15:26:45.377Z,28.95
2022-10-31T15:29:13.382Z,28.60
2022-10-31T15:31:39.741Z,28.20
2022-10-31T15:34:08.267Z,27.98
2022-10-31T15:36:38.417Z,28.17
2022-10-31T15:39:05.259Z,26.15
2022-10-31T15:41:40.900Z,26.85
2022-10-31T15:44:14.969Z,26.17
2022-10-31T15:46:41.519Z,26.45
2022-10-31T15:49:18.324Z,25.35
2022-10-31T15:51:44.689Z,27.65
2022-10-31T15:54:13.402Z,22.75
2022-10-31T15:56:39.725Z,25.00
2022-10-31T15:59:06.032Z,24.48
2022-10-31T16:01:33.603Z,25.42
2022-10-31T16:04:18.813Z,23.73
2022-10-31T16:06:45.154Z,24.05
2022-10-31T16:09:24.550Z,24.40
2022-10-31T16:11:51.156Z,25.08
2022-10-31T16:14:25.309Z,24.88
2022-10-31T16:16:54.711Z,24.55
2022-10-31T16:19:23.549Z,24.17
2022-10-31T16:21:52.602Z,24.45
2022-10-31T16:24:18.852Z,25.58
2022-10-31T16:26:49.138Z,24.70
2022-10-31T16:29:29.904Z,25.77
2022-10-31T16:31:56.321Z,25.30
2022-10-31T16:34:26.571Z,24.08
2022-10-31T16:36:53.486Z,22.90
2022-10-31T16:39:20.109Z,24.00
2022-10-31T16:41:48.153Z,23.95
2022-10-31T16:44:22.915Z,24.38
2022-10-31T16:47:01.186Z,21.58
2022-10-31T16:49:27.464Z,23.02
2022-10-31T16:51:53.745Z,25.63
2022-10-31T16:54:20.967Z,24.85
2022-10-31T16:56:47.292Z,24.73
2022-10-31T16:59:16.399Z,24.98
2022-10-31T17:01:45.631Z,25.70
2022-10-31T17:04:15.482Z,25.35
2022-10-31T17:06:42.319Z,26.27
2022-10-31T17:09:08.853Z,27.02
2022-10-31T17:11:35.238Z,26.13
2022-10-31T17:14:01.767Z,26.75
2022-10-31T17:16:28.074Z,26.95
2022-10-31T17:18:54.455Z,26.50
2022-10-31T17:21:24.743Z,26.40
2022-10-31T17:23:51.224Z,27.73
2022-10-31T17:26:17.773Z,29.00
2022-10-31T17:28:44.090Z,27.42
2022-10-31T17:31:24.120Z,28.10
2022-10-31T17:33:50.925Z,28.45
2022-10-31T17:36:17.301Z,29.58
2022-10-31T17:38:43.600Z,28.42
2022-10-31T17:41:11.426Z,26.60
2022-10-31T17:43:38.572Z,28.08
2022-10-31T17:46:05.157Z,26.80
2022-10-31T17:48:32.808Z,28.70
2022-10-31T17:51:06.098Z,28.02
2022-10-31T17:53:33.411Z,27.55
2022-10-31T17:56:06.953Z,26.70
2022-10-31T17:58:34.948Z,33.08
2022-10-31T18:01:01.724Z,30.02
2022-10-31T18:03:28.082Z,30.08
2022-10-31T18:05:58.168Z,28.85
2022-10-31T18:08:25.424Z,28.50
2022-10-31T18:10:51.760Z,26.83
2022-10-31T18:13:18.054Z,28.27
2022-10-31T18:15:44.794Z,29.52
2022-10-31T18:18:11.198Z,28.30
2022-10-31T18:20:37.479Z,28.60
2022-10-31T18:23:03.766Z,28.15
2022-10-31T18:25:30.126Z,27.13
2022-10-31T18:27:56.625Z,26.25
2022-10-31T18:30:23.012Z,28.05
2022-10-31T18:32:52.440Z,29.10
2022-10-31T18:35:18.837Z,28.48
2022-10-31T18:37:45.258Z,29.33
2022-10-31T18:40:11.593Z,27.02
2022-10-31T18:42:38.419Z,28.17
2022-10-31T18:45:11.331Z,27.63
2022-10-31T18:47:52.848Z,27.00
2022-10-31T18:50:19.490Z,28.38
2022-10-31T18:52:45.828Z,28.60
2022-10-31T18:55:12.157Z,27.77
2022-10-31T18:57:38.465Z,28.45
2022-10-31T19:00:05.856Z,27.40
2022-10-31T19:02:32.211Z,29.20
2022-10-31T19:04:58.655Z,27.75
2022-10-31T19:07:25.023Z,28.73
2022-10-31T19:09:51.345Z,28.00
2022-10-31T19:12:17.672Z,28.35
2022-10-31T19:14:43.975Z,26.63
2022-10-31T19:17:10.426Z,26.27
2022-10-31T19:19:38.269Z,27.05
2022-10-31T19:22:04.731Z,26.63
2022-10-31T19:24:32.215Z,26.50
2022-10-31T19:27:00.527Z,24.70
2022-10-31T19:29:26.929Z,24.98
2022-10-31T19:31:53.219Z,24.92
2022-10-31T19:34:19.534Z,23.70
2022-10-31T19:36:45.850Z,23.48
2022-10-31T19:39:12.220Z,23.48
2022-10-31T19:41:38.570Z,20.23
2022-10-31T19:44:05.033Z,21.02
2022-10-31T19:46:52.845Z,20.27
2022-10-31T19:49:17.706Z,17.90
2022-10-31T19:51:44.048Z,17.35
2022-10-31T19:54:10.578Z,17.05
2022-10-31T19:56:36.858Z,17.17
2022-10-31T19:59:03.954Z,17.15
2022-10-31T20:01:30.344Z,15.13
2022-10-31T20:03:56.742Z,15.57
2022-10-31T20:06:23.084Z,14.50
2022-10-31T20:08:49.483Z,13.55
2022-10-31T20:11:16.147Z,14.35
2022-10-31T20:13:42.614Z,13.90
2022-10-31T20:16:10.463Z,14.23
2022-10-31T20:18:37.100Z,12.95
2022-10-31T20:21:04.991Z,13.45
2022-10-31T20:23:32.138Z,11.80
2022-10-31T20:25:58.414Z,13.20
2022-10-31T20:28:24.750Z,12.55
2022-10-31T20:30:51.405Z,12.68
2022-10-31T20:33:17.880Z,11.93
2022-10-31T20:35:44.242Z,11.23
2022-10-31T20:38:10.598Z,12.98
2022-10-31T20:40:37.033Z,11.60
2022-10-31T20:43:03.910Z,10.23
2022-10-31T20:45:30.724Z,11.38
2022-10-31T20:47:57.146Z,11.02
2022-10-31T20:50:23.570Z,11.52
2022-10-31T20:52:50.255Z,10.30
2022-10-31T20:55:16.694Z,9.82
2022-10-31T20:57:43.066Z,10.23
2022-10-31T21:00:11.393Z,9.65
2022-10-31T21:02:43.814Z,7.95
2022-10-31T21:05:11.159Z,9.25
2022-10-31T21:07:38.279Z,9.18
2022-10-31T21:10:14.612Z,8.15
2022-10-31T21:12:44.470Z,7.90
2022-10-31T21:15:11.824Z,8.23
2022-10-31T21:17:38.175Z,7.68
2022-10-31T21:20:05.402Z,7.95
2022-10-31T21:22:31.719Z,7.25
2022-10-31T21:24:58.056Z,7.32
2022-10-31T21:27:24.353Z,8.18
2022-10-31T21:29:50.676Z,8.82
2022-10-31T21:32:17.072Z,7.85
2022-10-31T21:34:43.367Z,7.00
2022-10-31T21:37:09.661Z,7.95
2022-10-31T21:39:39.015Z,7.47
2022-10-31T21:42:05.525Z,7.05
2022-10-31T21:44:31.852Z,7.53
2022-10-31T21:46:58.152Z,7.63
2022-10-31T21:49:24.475Z,8.18
2022-10-31T21:51:50.796Z,7.70
2022-10-31T21:54:30.061Z,7.55
2022-10-31T21:56:57.223Z,8.10
2022-10-31T21:59:24.313Z,8.35
2022-10-31T22:01:51.292Z,7.57
2022-10-31T22:04:17.965Z,7.35
2022-10-31T22:06:44.291Z,6.97
2022-10-31T22:09:11.809Z,7.07
2022-10-31T22:11:38.463Z,6.50
2022-10-31T22:14:05.140Z,7.13
2022-10-31T22:16:33.509Z,6.78
2022-10-31T22:19:00.183Z,6.40
2022-10-31T22:21:27.201Z,6.72
2022-10-31T22:23:54.849Z,5.97
2022-10-31T22:26:21.497Z,6.13
2022-10-31T22:28:48.834Z,6.60
2022-10-31T22:31:16.279Z,6.53
2022-10-31T22:33:42.871Z,8.02
2022-10-31T22:36:10.415Z,6.93
2022-10-31T22:38:40.390Z,6.47
2022-10-31T22:41:07.807Z,8.15
2022-10-31T22:43:34.367Z,6.13
2022-10-31T22:46:03.461Z,7.32
2022-10-31T22:48:30.928Z,6.85
2022-10-31T22:51:07.307Z,6.60
2022-10-31T22:53:34.727Z,6.95
2022-10-31T22:56:01.274Z,7.13
2022-10-31T22:58:31.140Z,6.38
2022-10-31T23:00:57.636Z,7.15
2022-10-31T23:03:24.296Z,6.78
2022-10-31T23:05:57.340Z,5.82
2022-10-31T23:08:23.878Z,6.38
2022-10-31T23:10:50.302Z,6.53
2022-10-31T23:13:35.043Z,6.47
2022-10-31T23:16:01.388Z,6.28
2022-10-31T23:18:48.583Z,6.10
2022-10-31T23:21:32.561Z,5.65
2022-10-31T23:23:59.039Z,7.45
2022-10-31T23:26:44.191Z,6.47
2022-10-31T23:29:10.553Z,6.90
2022-10-31T23:31:37.032Z,7.18
2022-10-31T23:34:03.316Z,6.55
2022-10-31T23:36:29.695Z,6.35
2022-10-31T23:38:55.960Z,6.60
2022-10-31T23:41:23.406Z,6.63
2022-10-31T23:43:49.698Z,7.18
2022-10-31T23:46:15.998Z,6.63
2022-10-31T23:48:42.336Z,6.70
2022-10-31T23:51:08.611Z,7.53
2022-10-31T23:56:02.253Z,7.47
2022-10-31T23:58:28.561Z,7.20
